createdAt,value
2019-03-18T00:01:02.903Z,100.00
2019-03-18T00:02:07.597Z,99.96
2019-03-18T00:03:10.269Z,100.00
2019-03-18T00:04:12.987Z,100.00
2019-03-18T00:05:15.648Z,100.00
2019-03-18T00:06:19.380Z,100.00
2019-03-18T00:07:22.339Z,99.94
2019-03-18T00:08:24.985Z,99.84
2019-03-18T00:09:27.665Z,99.88
2019-03-18T00:10:30.699Z,100.00
2019-03-18T00:11:33.453Z,100.00
2019-03-18T00:12:36.476Z,100.00
2019-03-18T00:13:39.427Z,100.00
2019-03-18T00:14:42.153Z,100.00
2019-03-18T00:15:44.805Z,100.00
2019-03-18T00:16:47.542Z,100.00
2019-03-18T00:17:50.205Z,100.00
2019-03-18T00:18:55.996Z,100.00
2019-03-18T00:20:02.609Z,100.00
2019-03-18T00:21:06.904Z,100.00
2019-03-18T00:22:09.722Z,100.00
2019-03-18T00:23:13.765Z,99.94
2019-03-18T00:24:16.420Z,100.00
2019-03-18T00:25:19.103Z,100.00
2019-03-18T00:26:23.427Z,100.00
2019-03-18T00:27:31.220Z,100.00
2019-03-18T00:28:33.959Z,99.72
2019-03-18T00:29:36.625Z,99.87
2019-03-18T00:30:39.323Z,99.29
2019-03-18T00:31:42.291Z,99.53
2019-03-18T00:32:45.462Z,99.61
2019-03-18T00:33:48.162Z,99.55
2019-03-18T00:34:51.249Z,99.55
2019-03-18T00:35:56.835Z,99.32
2019-03-18T00:37:00.425Z,99.32
2019-03-18T00:38:03.461Z,98.96
2019-03-18T00:39:06.122Z,99.33
2019-03-18T00:40:08.766Z,99.33
2019-03-18T00:41:11.497Z,99.33
2019-03-18T00:42:17.278Z,99.39
2019-03-18T00:43:22.672Z,99.38
2019-03-18T00:44:25.986Z,99.19
2019-03-18T00:45:30.788Z,99.09
2019-03-18T00:46:33.569Z,99.09
2019-03-18T00:47:37.862Z,99.13
2019-03-18T00:48:40.543Z,98.85
2019-03-18T00:49:43.267Z,98.85
2019-03-18T00:50:46.207Z,98.88
2019-03-18T00:51:48.979Z,99.08
2019-03-18T00:52:51.650Z,99.07
2019-03-18T00:53:54.414Z,98.90
2019-03-18T00:54:57.074Z,98.90
2019-03-18T00:55:59.828Z,98.84
2019-03-18T00:57:02.771Z,99.17
2019-03-18T00:58:05.751Z,99.17
2019-03-18T00:59:08.421Z,98.78
2019-03-18T01:00:11.083Z,98.78
2019-03-18T01:01:13.813Z,98.41
2019-03-18T01:02:16.457Z,98.41
2019-03-18T01:03:19.435Z,98.22
2019-03-18T01:04:22.121Z,98.22
2019-03-18T01:05:25.326Z,98.17
2019-03-18T01:06:27.991Z,98.43
2019-03-18T01:07:30.748Z,98.17
2019-03-18T01:08:33.429Z,97.70
2019-03-18T01:09:36.448Z,98.19
2019-03-18T01:10:39.564Z,97.23
2019-03-18T01:11:42.405Z,97.78
2019-03-18T01:12:45.077Z,97.22
2019-03-18T01:13:48.249Z,97.38
2019-03-18T01:14:50.922Z,97.28
2019-03-18T01:15:53.885Z,97.28
2019-03-18T01:16:56.663Z,96.79
2019-03-18T01:17:59.858Z,97.04
2019-03-18T01:19:02.526Z,97.28
2019-03-18T01:20:05.189Z,96.17
2019-03-18T01:21:07.860Z,96.35
2019-03-18T01:22:10.668Z,96.61
2019-03-18T01:23:13.470Z,97.22
2019-03-18T01:24:16.122Z,96.47
2019-03-18T01:25:19.207Z,96.29
2019-03-18T01:26:21.930Z,97.02
2019-03-18T01:27:25.518Z,97.02
2019-03-18T01:28:28.336Z,97.29
2019-03-18T01:29:31.057Z,97.21
2019-03-18T01:30:33.735Z,96.72
2019-03-18T01:31:39.042Z,96.81
2019-03-18T01:32:41.714Z,96.55
2019-03-18T01:33:47.815Z,96.32
2019-03-18T01:34:50.469Z,96.25
2019-03-18T01:35:53.585Z,96.25
2019-03-18T01:36:56.274Z,95.02
2019-03-18T01:37:59.308Z,95.32
2019-03-18T01:39:02.081Z,95.33
2019-03-18T01:40:06.324Z,95.27
2019-03-18T01:41:09.373Z,95.19
2019-03-18T01:42:12.014Z,95.69
2019-03-18T01:43:14.687Z,95.25
2019-03-18T01:44:17.409Z,95.35
2019-03-18T01:45:20.202Z,95.45
2019-03-18T01:46:23.255Z,95.38
2019-03-18T01:47:25.920Z,95.14
2019-03-18T01:48:28.644Z,95.89
2019-03-18T01:49:31.299Z,95.89
2019-03-18T01:50:34.108Z,95.59
2019-03-18T01:51:36.743Z,95.06
2019-03-18T01:52:39.681Z,95.41
2019-03-18T01:53:43.141Z,95.52
2019-03-18T01:54:45.813Z,95.89
2019-03-18T01:55:48.991Z,95.74
2019-03-18T01:56:51.782Z,95.74
2019-03-18T01:57:54.715Z,95.56
2019-03-18T01:58:57.788Z,95.56
2019-03-18T02:00:00.667Z,95.98
2019-03-18T02:01:03.528Z,96.07
2019-03-18T02:02:06.303Z,96.07
2019-03-18T02:03:11.657Z,95.78
2019-03-18T02:04:14.384Z,96.27
2019-03-18T02:05:17.077Z,95.86
2019-03-18T02:06:19.896Z,95.86
2019-03-18T02:07:23.293Z,95.97
2019-03-18T02:08:26.087Z,95.59
2019-03-18T02:09:29.302Z,95.79
2019-03-18T02:10:32.045Z,95.76
2019-03-18T02:11:35.211Z,95.76
2019-03-18T02:12:40.406Z,95.72
2019-03-18T02:13:42.926Z,95.44
2019-03-18T02:14:45.798Z,95.44
2019-03-18T02:15:53.715Z,95.65
2019-03-18T02:16:55.898Z,95.42
2019-03-18T02:17:58.840Z,94.71
2019-03-18T02:19:01.541Z,95.38
2019-03-18T02:20:04.301Z,95.46
2019-03-18T02:21:06.978Z,95.45
2019-03-18T02:22:09.611Z,95.64
2019-03-18T02:23:12.356Z,95.13
2019-03-18T02:24:15.375Z,95.63
2019-03-18T02:25:18.123Z,95.66
2019-03-18T02:26:21.194Z,96.01
2019-03-18T02:27:23.863Z,96.01
2019-03-18T02:28:26.598Z,95.39
2019-03-18T02:29:29.270Z,94.89
2019-03-18T02:30:34.473Z,94.89
2019-03-18T02:31:37.203Z,95.18
2019-03-18T02:32:39.888Z,95.51
2019-03-18T02:33:43.144Z,94.83
2019-03-18T02:34:45.891Z,95.61
2019-03-18T02:35:48.628Z,95.61
2019-03-18T02:36:52.041Z,94.93
2019-03-18T02:37:54.689Z,95.30
2019-03-18T02:38:57.700Z,95.08
2019-03-18T02:40:00.642Z,94.86
2019-03-18T02:41:05.377Z,94.86
2019-03-18T02:42:08.154Z,94.57
2019-03-18T02:43:11.299Z,94.59
2019-03-18T02:44:13.991Z,94.62
2019-03-18T02:45:16.756Z,95.02
2019-03-18T02:46:19.449Z,94.62
2019-03-18T02:47:22.242Z,94.50
2019-03-18T02:48:26.909Z,94.50
2019-03-18T02:49:29.868Z,94.91
2019-03-18T02:50:32.547Z,94.91
2019-03-18T02:51:35.240Z,94.85
2019-03-18T02:52:41.008Z,94.41
2019-03-18T02:53:43.719Z,94.91
2019-03-18T02:54:46.882Z,94.91
2019-03-18T02:55:49.963Z,94.59
2019-03-18T02:56:52.694Z,94.94
2019-03-18T02:57:55.356Z,95.58
2019-03-18T02:58:57.987Z,94.95
2019-03-18T03:00:00.658Z,94.85
2019-03-18T03:01:03.466Z,94.85
2019-03-18T03:02:06.495Z,94.69
2019-03-18T03:03:09.232Z,94.43
2019-03-18T03:04:11.917Z,94.43
2019-03-18T03:05:14.717Z,94.61
2019-03-18T03:06:19.701Z,94.91
2019-03-18T03:07:22.434Z,94.91
2019-03-18T03:08:25.466Z,94.98
2019-03-18T03:09:29.103Z,95.44
2019-03-18T03:10:31.936Z,95.47
2019-03-18T03:11:34.856Z,95.10
2019-03-18T03:12:37.567Z,95.10
2019-03-18T03:13:42.765Z,94.77
2019-03-18T03:14:45.936Z,94.80
2019-03-18T03:15:48.722Z,94.69
2019-03-18T03:16:51.534Z,94.91
2019-03-18T03:17:54.309Z,94.65
2019-03-18T03:18:57.536Z,94.65
2019-03-18T03:20:03.376Z,94.70
2019-03-18T03:21:08.559Z,94.88
2019-03-18T03:22:11.322Z,94.62
2019-03-18T03:23:14.083Z,94.62
2019-03-18T03:24:16.846Z,94.46
2019-03-18T03:25:20.001Z,94.10
2019-03-18T03:26:22.742Z,93.67
2019-03-18T03:27:25.767Z,93.71
2019-03-18T03:28:28.448Z,94.62
2019-03-18T03:29:31.165Z,94.22
2019-03-18T03:30:33.998Z,93.26
2019-03-18T03:31:36.662Z,94.09
2019-03-18T03:32:39.513Z,94.00
2019-03-18T03:33:45.357Z,93.96
2019-03-18T03:34:48.107Z,94.46
2019-03-18T03:35:51.287Z,94.60
2019-03-18T03:36:54.036Z,94.60
2019-03-18T03:37:57.206Z,94.22
2019-03-18T03:39:00.320Z,94.06
2019-03-18T03:40:03.322Z,93.76
2019-03-18T03:41:06.179Z,94.03
2019-03-18T03:42:08.952Z,93.51
2019-03-18T03:43:11.646Z,94.23
2019-03-18T03:44:14.738Z,94.23
2019-03-18T03:45:17.489Z,94.42
2019-03-18T03:46:21.408Z,94.51
2019-03-18T03:47:24.089Z,94.51
2019-03-18T03:48:27.144Z,94.58
2019-03-18T03:49:29.901Z,94.43
2019-03-18T03:50:32.702Z,94.55
2019-03-18T03:51:35.493Z,94.20
2019-03-18T03:52:38.553Z,94.20
2019-03-18T03:53:41.315Z,94.11
2019-03-18T03:54:44.045Z,94.28
2019-03-18T03:55:46.781Z,94.55
2019-03-18T03:56:49.502Z,94.55
2019-03-18T03:57:52.227Z,94.60
2019-03-18T03:58:55.635Z,94.41
2019-03-18T03:59:58.699Z,94.06
2019-03-18T04:01:01.424Z,94.21
2019-03-18T04:02:04.261Z,93.97
2019-03-18T04:03:06.917Z,93.97
2019-03-18T04:04:09.647Z,93.86
2019-03-18T04:05:12.706Z,93.86
2019-03-18T04:06:15.566Z,93.89
2019-03-18T04:07:18.388Z,93.85
2019-03-18T04:08:22.165Z,94.05
2019-03-18T04:09:24.870Z,94.15
2019-03-18T04:10:27.709Z,93.60
2019-03-18T04:11:30.716Z,94.12
2019-03-18T04:12:33.786Z,93.53
2019-03-18T04:13:36.505Z,94.26
2019-03-18T04:14:39.189Z,94.26
2019-03-18T04:15:42.600Z,93.66
2019-03-18T04:17:00.565Z,94.07
2019-03-18T04:17:51.814Z,94.24
2019-03-18T04:18:54.553Z,93.83
2019-03-18T04:20:00.532Z,93.90
2019-03-18T04:21:02.701Z,94.06
2019-03-18T04:22:05.969Z,94.47
2019-03-18T04:23:10.639Z,94.04
2019-03-18T04:24:13.617Z,94.08
2019-03-18T04:25:16.438Z,94.08
2019-03-18T04:26:19.143Z,94.49
2019-03-18T04:27:24.812Z,94.35
2019-03-18T04:28:26.676Z,94.52
2019-03-18T04:29:29.463Z,94.95
2019-03-18T04:30:32.136Z,94.42
2019-03-18T04:31:34.856Z,94.12
2019-03-18T04:32:37.644Z,93.81
2019-03-18T04:33:40.374Z,93.81
2019-03-18T04:34:44.105Z,94.26
2019-03-18T04:35:46.812Z,94.12
2019-03-18T04:36:49.525Z,94.01
2019-03-18T04:37:52.292Z,93.60
2019-03-18T04:38:55.301Z,93.91
2019-03-18T04:39:58.092Z,93.91
2019-03-18T04:41:01.544Z,93.67
2019-03-18T04:42:04.225Z,93.55
2019-03-18T04:43:06.900Z,93.79
2019-03-18T04:44:09.576Z,94.22
2019-03-18T04:45:15.373Z,94.22
2019-03-18T04:46:18.023Z,94.16
2019-03-18T04:47:21.955Z,94.24
2019-03-18T04:48:24.623Z,94.21
2019-03-18T04:49:27.943Z,94.21
2019-03-18T04:50:30.808Z,94.21
2019-03-18T04:51:33.529Z,94.13
2019-03-18T04:52:36.178Z,94.13
2019-03-18T04:53:39.138Z,93.93
2019-03-18T04:54:41.890Z,94.25
2019-03-18T04:55:44.549Z,93.26
2019-03-18T04:56:47.330Z,94.01
2019-03-18T04:57:50.050Z,94.27
2019-03-18T04:58:52.807Z,94.62
2019-03-18T04:59:55.741Z,94.43
2019-03-18T05:00:58.719Z,94.83
2019-03-18T05:02:04.922Z,95.08
2019-03-18T05:03:07.970Z,95.08
2019-03-18T05:04:11.077Z,95.34
2019-03-18T05:05:14.204Z,95.99
2019-03-18T05:06:17.257Z,95.54
2019-03-18T05:07:19.958Z,96.51
2019-03-18T05:08:23.131Z,96.78
2019-03-18T05:09:25.814Z,96.96
2019-03-18T05:10:28.492Z,96.96
2019-03-18T05:11:31.154Z,96.87
2019-03-18T05:12:36.345Z,97.07
2019-03-18T05:13:39.108Z,97.38
2019-03-18T05:14:41.816Z,97.19
2019-03-18T05:15:44.458Z,97.26
2019-03-18T05:16:47.163Z,97.16
2019-03-18T05:17:52.358Z,97.21
2019-03-18T05:18:56.628Z,97.21
2019-03-18T05:20:00.406Z,97.33
2019-03-18T05:21:03.150Z,97.59
2019-03-18T05:22:08.917Z,97.71
2019-03-18T05:23:11.687Z,97.55
2019-03-18T05:24:14.837Z,98.08
2019-03-18T05:25:17.797Z,98.08
2019-03-18T05:26:22.327Z,97.77
2019-03-18T05:27:25.630Z,98.13
2019-03-18T05:28:29.766Z,97.60
2019-03-18T05:29:32.488Z,97.59
2019-03-18T05:30:35.545Z,97.95
2019-03-18T05:31:38.554Z,97.76
2019-03-18T05:32:41.233Z,97.38
2019-03-18T05:33:43.995Z,98.41
2019-03-18T05:34:47.148Z,98.46
2019-03-18T05:35:49.884Z,97.79
2019-03-18T05:36:52.628Z,98.40
2019-03-18T05:37:55.999Z,98.40
2019-03-18T05:39:02.878Z,98.77
2019-03-18T05:40:07.869Z,99.29
2019-03-18T05:41:10.603Z,99.10
2019-03-18T05:42:13.510Z,99.00
2019-03-18T05:43:16.189Z,99.23
2019-03-18T05:44:19.204Z,99.34
2019-03-18T05:45:21.949Z,99.34
2019-03-18T05:46:24.977Z,99.25
2019-03-18T05:47:38.592Z,99.38
2019-03-18T05:48:33.178Z,99.48
2019-03-18T05:49:37.015Z,99.74
2019-03-18T05:50:40.108Z,99.74
2019-03-18T05:51:45.213Z,99.30
2019-03-18T05:52:50.645Z,99.30
2019-03-18T05:53:53.439Z,99.69
2019-03-18T05:54:58.898Z,99.41
2019-03-18T05:56:01.934Z,99.41
2019-03-18T05:57:04.654Z,100.00
2019-03-18T05:58:07.712Z,100.00
2019-03-18T05:59:10.427Z,100.00
2019-03-18T06:00:13.305Z,100.00
2019-03-18T06:01:16.026Z,100.00
2019-03-18T06:02:19.007Z,100.00
2019-03-18T06:03:21.735Z,100.00
2019-03-18T06:04:25.051Z,100.00
2019-03-18T06:05:27.969Z,100.00
2019-03-18T06:06:30.632Z,100.00
2019-03-18T06:07:33.405Z,100.00
2019-03-18T06:08:36.813Z,100.00
2019-03-18T06:09:39.519Z,100.00
2019-03-18T06:10:42.286Z,100.00
2019-03-18T06:11:44.966Z,100.00
2019-03-18T06:12:49.041Z,100.00
2019-03-18T06:13:57.801Z,100.00
2019-03-18T06:15:03.321Z,100.00
2019-03-18T06:16:08.060Z,100.00
2019-03-18T06:17:10.925Z,100.00
2019-03-18T06:18:14.070Z,100.00
2019-03-18T06:19:16.921Z,100.00
2019-03-18T06:20:19.891Z,100.00
2019-03-18T06:21:22.697Z,100.00
2019-03-18T06:22:28.423Z,100.00
2019-03-18T06:23:31.243Z,100.00
2019-03-18T06:24:36.509Z,100.00
2019-03-18T06:25:39.263Z,100.00
2019-03-18T06:26:43.882Z,100.00
2019-03-18T06:27:46.607Z,100.00
2019-03-18T06:28:49.329Z,100.00
2019-03-18T06:29:52.535Z,100.00
2019-03-18T06:43:51.522Z,100.00
2019-03-18T06:44:54.480Z,100.00
2019-03-18T06:45:57.859Z,100.00
2019-03-18T06:47:00.688Z,100.00
2019-03-18T06:48:05.446Z,100.00
2019-03-18T06:49:08.855Z,100.00
2019-03-18T06:50:12.299Z,100.00
2019-03-18T06:51:15.715Z,100.00
2019-03-18T06:52:18.441Z,99.97
2019-03-18T06:53:21.112Z,99.63
2019-03-18T06:54:26.987Z,100.00
2019-03-18T06:55:29.941Z,100.00
2019-03-18T06:56:32.630Z,100.00
2019-03-18T06:57:35.823Z,100.00
2019-03-18T06:58:38.939Z,99.25
2019-03-18T06:59:44.284Z,99.25
2019-03-18T07:00:46.941Z,99.83
2019-03-18T07:01:50.574Z,99.60
2019-03-18T07:02:53.296Z,99.60
2019-03-18T07:03:56.371Z,99.38
2019-03-18T07:05:16.792Z,100.00
2019-03-18T07:06:19.470Z,100.00
2019-03-18T07:07:22.334Z,100.00
2019-03-18T07:08:25.623Z,99.86
2019-03-18T07:09:28.796Z,99.60
2019-03-18T07:10:31.484Z,100.00
2019-03-18T07:11:34.181Z,99.96
2019-03-18T07:12:37.026Z,99.96
2019-03-18T07:13:40.283Z,99.72
2019-03-18T07:14:43.527Z,99.45
2019-03-18T07:15:46.369Z,100.00
2019-03-18T07:16:49.177Z,100.00
2019-03-18T07:17:52.082Z,100.00
2019-03-18T07:18:54.957Z,100.00
2019-03-18T07:19:57.800Z,99.83
2019-03-18T07:21:01.331Z,99.83
2019-03-18T07:22:04.182Z,100.00
2019-03-18T07:23:07.049Z,100.00
2019-03-18T07:24:09.923Z,100.00
2019-03-18T07:25:14.746Z,100.00
2019-03-18T07:26:18.096Z,100.00
2019-03-18T07:27:21.317Z,100.00
2019-03-18T07:28:24.216Z,100.00
2019-03-18T07:29:27.072Z,100.00
2019-03-18T07:30:29.941Z,100.00
2019-03-18T07:31:32.749Z,100.00
2019-03-18T07:32:35.615Z,100.00
2019-03-18T07:33:38.859Z,100.00
2019-03-18T07:34:42.018Z,100.00
2019-03-18T07:35:44.933Z,100.00
2019-03-18T07:36:48.218Z,100.00
2019-03-18T07:37:51.593Z,100.00
2019-03-18T07:38:54.628Z,99.92
2019-03-18T07:40:00.652Z,100.00
2019-03-18T07:41:03.533Z,100.00
2019-03-18T07:42:09.483Z,100.00
2019-03-18T07:43:12.371Z,100.00
2019-03-18T07:44:15.261Z,100.00
2019-03-18T07:45:18.162Z,100.00
2019-03-18T07:46:21.329Z,100.00
2019-03-18T07:47:24.568Z,100.00
2019-03-18T07:48:31.317Z,100.00
2019-03-18T07:49:35.039Z,100.00
2019-03-18T07:50:40.539Z,100.00
2019-03-18T07:51:43.924Z,100.00
2019-03-18T07:52:47.215Z,100.00
2019-03-18T07:53:50.515Z,100.00
2019-03-18T07:54:53.436Z,100.00
2019-03-18T07:55:56.291Z,100.00
2019-03-18T07:56:59.121Z,100.00
2019-03-18T07:58:02.015Z,100.00
2019-03-18T07:59:08.789Z,100.00
2019-03-18T08:00:11.369Z,100.00
2019-03-18T08:01:14.405Z,100.00
2019-03-18T08:02:17.277Z,100.00
2019-03-18T08:03:20.182Z,100.00
2019-03-18T08:04:23.034Z,100.00
2019-03-18T08:05:26.166Z,100.00
2019-03-18T08:06:30.144Z,100.00
2019-03-18T08:07:36.242Z,100.00
2019-03-18T08:08:40.526Z,100.00
2019-03-18T08:09:43.518Z,99.88
2019-03-18T08:10:46.434Z,99.83
2019-03-18T08:11:50.716Z,99.76
2019-03-18T08:12:53.751Z,100.00
2019-03-18T08:13:56.638Z,100.00
2019-03-18T08:15:02.520Z,100.00
2019-03-18T08:16:06.991Z,99.97
2019-03-18T08:17:10.553Z,100.00
2019-03-18T08:18:13.541Z,99.50
2019-03-18T08:19:16.521Z,99.74
2019-03-18T08:20:19.382Z,99.74
2019-03-18T08:21:23.489Z,99.61
2019-03-18T08:22:26.303Z,98.97
2019-03-18T08:23:29.606Z,98.97
2019-03-18T08:24:33.222Z,99.00
2019-03-18T08:25:38.986Z,98.78
2019-03-18T08:26:41.969Z,97.71
2019-03-18T08:27:46.377Z,97.71
2019-03-18T08:28:49.192Z,97.59
2019-03-18T08:29:54.544Z,97.62
2019-03-18T08:30:59.956Z,96.97
2019-03-18T08:32:03.609Z,96.97
2019-03-18T08:33:06.543Z,97.07
2019-03-18T08:34:09.478Z,96.81
2019-03-18T08:35:12.307Z,97.54
2019-03-18T08:36:15.286Z,97.22
2019-03-18T08:37:18.386Z,97.22
2019-03-18T08:38:21.344Z,98.07
2019-03-18T08:39:24.791Z,98.28
2019-03-18T08:40:27.767Z,98.06
2019-03-18T08:41:30.737Z,98.38
2019-03-18T08:42:37.467Z,98.38
2019-03-18T08:43:40.790Z,98.94
2019-03-18T08:44:43.712Z,98.68
2019-03-18T08:45:46.674Z,98.68
2019-03-18T08:46:49.614Z,98.97
2019-03-18T08:47:52.910Z,98.68
2019-03-18T08:48:56.235Z,98.33
2019-03-18T08:49:59.251Z,98.56
2019-03-18T08:51:02.145Z,98.68
2019-03-18T08:52:05.071Z,98.29
2019-03-18T08:53:07.924Z,98.45
2019-03-18T08:54:15.177Z,98.42
2019-03-18T08:55:17.771Z,98.60
2019-03-18T08:56:20.566Z,99.04
2019-03-18T08:57:23.471Z,98.65
2019-03-18T08:58:26.287Z,99.00
2019-03-18T08:59:30.215Z,99.04
2019-03-18T09:00:33.344Z,99.54
2019-03-18T09:01:36.173Z,99.64
2019-03-18T09:02:39.109Z,99.40
2019-03-18T09:03:41.987Z,99.40
2019-03-18T09:04:45.085Z,99.99
2019-03-18T09:05:47.982Z,100.00
2019-03-18T09:06:51.150Z,99.75
2019-03-18T09:07:55.347Z,99.85
2019-03-18T09:08:58.614Z,99.94
2019-03-18T09:10:03.356Z,99.99
2019-03-18T09:11:06.247Z,99.99
2019-03-18T09:12:09.443Z,99.85
2019-03-18T09:13:12.284Z,100.00
2019-03-18T09:14:15.159Z,100.00
2019-03-18T09:15:22.696Z,100.00
2019-03-18T09:16:27.467Z,100.00
2019-03-18T09:17:30.459Z,99.84
2019-03-18T09:18:36.804Z,99.71
2019-03-18T09:19:42.862Z,99.51
2019-03-18T09:20:46.382Z,98.94
2019-03-18T09:21:49.330Z,98.94
2019-03-18T09:22:52.276Z,98.58
2019-03-18T09:23:55.093Z,98.28
2019-03-18T09:24:58.366Z,99.12
2019-03-18T09:26:03.503Z,98.92
2019-03-18T09:27:10.697Z,98.76
2019-03-18T09:28:13.555Z,98.94
2019-03-18T09:29:16.376Z,98.97
2019-03-18T09:30:19.477Z,98.97
2019-03-18T09:31:24.131Z,98.46
2019-03-18T09:32:27.038Z,98.50
2019-03-18T09:33:31.781Z,98.50
2019-03-18T09:34:34.663Z,98.04
2019-03-18T09:35:39.126Z,98.01
2019-03-18T09:36:41.955Z,98.01
2019-03-18T09:37:46.659Z,97.67
2019-03-18T09:38:51.125Z,97.59
2019-03-18T09:39:54.308Z,97.26
2019-03-18T09:40:57.617Z,96.89
2019-03-18T09:42:00.469Z,96.89
2019-03-18T09:43:05.836Z,95.83
2019-03-18T09:44:13.134Z,93.01
2019-03-18T09:45:17.306Z,93.01
2019-03-18T09:46:20.307Z,91.73
2019-03-18T09:47:24.707Z,91.96
2019-03-18T09:48:27.737Z,91.99
2019-03-18T09:49:34.308Z,90.16
2019-03-18T09:50:37.738Z,87.88
2019-03-18T09:51:40.595Z,88.94
2019-03-18T09:52:43.419Z,88.88
2019-03-18T09:53:46.292Z,88.19
2019-03-18T09:54:49.176Z,88.53
2019-03-18T09:55:52.564Z,87.03
2019-03-18T09:56:55.912Z,87.03
2019-03-18T09:57:58.838Z,85.84
2019-03-18T09:59:02.080Z,86.28
2019-03-18T10:00:05.292Z,86.13
2019-03-18T10:01:12.096Z,85.55
2019-03-18T10:02:15.480Z,87.32
2019-03-18T10:03:18.298Z,86.82
2019-03-18T10:04:23.871Z,84.96
2019-03-18T10:05:26.724Z,84.53
2019-03-18T10:06:29.563Z,84.66
2019-03-18T10:07:32.919Z,84.66
2019-03-18T10:08:36.161Z,85.49
2019-03-18T10:09:41.204Z,84.30
2019-03-18T10:10:45.394Z,86.15
2019-03-18T10:11:48.304Z,85.96
2019-03-18T10:12:53.886Z,83.52
2019-03-18T10:13:56.712Z,82.97
2019-03-18T10:15:00.492Z,83.78
2019-03-18T10:16:06.774Z,82.86
2019-03-18T10:17:10.249Z,82.50
2019-03-18T10:18:15.782Z,83.75
2019-03-18T10:19:18.626Z,83.54
2019-03-18T10:20:21.453Z,83.54
2019-03-18T10:21:24.797Z,83.50
2019-03-18T10:22:27.633Z,84.18
2019-03-18T10:23:30.605Z,83.79
2019-03-18T10:24:33.532Z,82.75
2019-03-18T10:25:37.027Z,82.09
2019-03-18T10:26:39.773Z,82.20
2019-03-18T10:27:46.249Z,82.67
2019-03-18T10:28:49.961Z,82.14
2019-03-18T10:29:52.703Z,81.76
2019-03-18T10:30:57.981Z,81.04
2019-03-18T10:32:01.326Z,81.92
2019-03-18T10:33:06.943Z,82.43
2019-03-18T10:34:13.006Z,82.43
2019-03-18T10:35:15.954Z,81.97
2019-03-18T10:36:18.894Z,82.33
2019-03-18T10:37:21.690Z,81.30
2019-03-18T10:38:24.519Z,82.00
2019-03-18T10:39:27.410Z,81.50
2019-03-18T10:40:31.198Z,81.32
2019-03-18T10:41:34.024Z,81.13
2019-03-18T10:42:36.720Z,81.84
2019-03-18T10:43:44.895Z,82.90
2019-03-18T10:44:47.799Z,83.08
2019-03-18T10:45:50.691Z,83.50
2019-03-18T10:46:53.546Z,84.18
2019-03-18T10:47:56.941Z,84.19
2019-03-18T10:49:00.221Z,84.53
2019-03-18T10:50:03.103Z,85.08
2019-03-18T10:51:05.974Z,85.14
2019-03-18T10:52:08.864Z,85.04
2019-03-18T10:53:12.260Z,84.97
2019-03-18T10:54:15.407Z,84.97
2019-03-18T10:55:18.292Z,85.27
2019-03-18T10:56:22.221Z,85.52
2019-03-18T10:57:25.104Z,85.52
2019-03-18T10:58:28.012Z,87.04
2019-03-18T10:59:31.654Z,87.79
2019-03-18T11:00:38.751Z,87.79
2019-03-18T11:01:41.566Z,89.03
2019-03-18T11:02:45.205Z,88.86
2019-03-18T11:03:48.378Z,89.13
2019-03-18T11:04:51.111Z,89.13
2019-03-18T11:05:55.178Z,89.46
2019-03-18T11:06:58.542Z,90.03
2019-03-18T11:08:03.438Z,90.02
2019-03-18T11:09:06.206Z,90.02
2019-03-18T11:10:08.941Z,89.79
2019-03-18T11:11:14.090Z,87.78
2019-03-18T11:12:19.536Z,87.78
2019-03-18T11:13:25.304Z,86.28
2019-03-18T11:14:28.091Z,86.28
2019-03-18T11:15:32.582Z,83.11
2019-03-18T11:16:41.270Z,80.41
2019-03-18T11:17:47.182Z,80.41
2019-03-18T11:18:50.268Z,78.01
2019-03-18T11:19:58.709Z,76.22
2019-03-18T11:21:00.719Z,76.49
2019-03-18T11:22:03.590Z,75.82
2019-03-18T11:23:06.632Z,73.40
2019-03-18T11:24:16.264Z,71.80
2019-03-18T11:25:19.361Z,71.80
2019-03-18T11:26:22.167Z,70.08
2019-03-18T11:27:25.279Z,68.10
2019-03-18T11:28:32.239Z,69.64
2019-03-18T11:29:32.621Z,69.19
2019-03-18T11:42:52.146Z,69.78
2019-03-18T11:44:01.954Z,70.06
2019-03-18T11:45:08.134Z,70.84
2019-03-18T11:46:13.977Z,69.94
2019-03-18T11:47:21.533Z,72.99
2019-03-18T11:48:25.037Z,70.15
2019-03-18T11:49:39.192Z,70.73
2019-03-18T11:50:35.310Z,70.73
2019-03-18T11:51:39.170Z,67.29
2019-03-18T11:52:43.002Z,65.32
2019-03-18T11:53:46.029Z,67.02
2019-03-18T11:54:49.054Z,67.02
2019-03-18T11:55:52.073Z,67.21
2019-03-18T11:56:54.751Z,64.94
2019-03-18T11:57:57.868Z,66.23
2019-03-18T11:59:01.132Z,68.16
2019-03-18T12:00:03.784Z,68.16
2019-03-18T12:01:06.832Z,70.39
2019-03-18T12:02:10.613Z,70.58
2019-03-18T12:03:13.321Z,70.58
2019-03-18T12:04:25.365Z,74.01
2019-03-18T12:05:30.494Z,73.55
2019-03-18T12:06:33.186Z,73.62
2019-03-18T12:07:36.328Z,73.62
2019-03-18T12:08:39.585Z,71.96
2019-03-18T12:09:42.422Z,72.53
2019-03-18T12:10:45.210Z,72.32
2019-03-18T12:11:48.303Z,71.16
2019-03-18T12:12:52.428Z,69.88
2019-03-18T12:13:56.559Z,70.16
2019-03-18T12:15:00.873Z,72.42
2019-03-18T12:16:03.721Z,72.42
2019-03-18T12:17:08.087Z,72.86
2019-03-18T12:18:10.932Z,72.91
2019-03-18T12:19:13.645Z,73.67
2019-03-18T12:20:24.862Z,75.68
2019-03-18T12:21:26.005Z,75.40
2019-03-18T12:22:35.656Z,75.40
2019-03-18T12:23:41.534Z,75.40
2019-03-18T12:24:45.310Z,75.62
2019-03-18T12:25:48.470Z,76.03
2019-03-18T12:26:52.197Z,76.09
2019-03-18T12:27:57.096Z,77.48
2019-03-18T12:28:59.775Z,76.47
2019-03-18T12:30:05.317Z,75.07
2019-03-18T12:31:08.088Z,75.07
2019-03-18T12:32:12.717Z,74.83
2019-03-18T12:33:20.120Z,74.83
2019-03-18T12:34:22.842Z,73.04
2019-03-18T12:35:25.526Z,73.04
2019-03-18T12:36:28.290Z,71.46
2019-03-18T12:37:36.119Z,69.57
2019-03-18T12:38:40.819Z,69.52
2019-03-18T12:39:45.411Z,69.33
2019-03-18T12:40:48.347Z,69.33
2019-03-18T12:41:53.611Z,69.82
2019-03-18T12:43:00.131Z,69.52
2019-03-18T12:44:05.655Z,69.52
2019-03-18T12:45:11.581Z,69.58
2019-03-18T12:46:15.479Z,68.94
2019-03-18T12:47:18.251Z,67.84
2019-03-18T12:48:21.286Z,69.09
2019-03-18T12:49:26.264Z,66.14
2019-03-18T12:50:49.357Z,65.62
2019-03-18T12:51:34.365Z,65.62
2019-03-18T12:52:37.059Z,63.85
2019-03-18T12:53:39.970Z,63.85
2019-03-18T12:54:42.738Z,63.34
2019-03-18T12:55:45.590Z,65.50
2019-03-18T12:56:48.351Z,65.50
2019-03-18T12:57:56.556Z,65.04
2019-03-18T12:59:11.869Z,65.78
2019-03-18T13:00:18.436Z,63.14
2019-03-18T13:01:21.314Z,65.03
2019-03-18T13:02:24.112Z,65.06
2019-03-18T13:03:32.504Z,65.06
2019-03-18T13:04:37.440Z,64.49
2019-03-18T13:05:42.016Z,64.49
2019-03-18T13:06:44.752Z,64.72
2019-03-18T13:07:47.519Z,63.95
2019-03-18T13:08:51.643Z,63.58
2019-03-18T13:09:56.315Z,63.58
2019-03-18T13:10:59.139Z,65.91
2019-03-18T13:12:01.963Z,66.25
2019-03-18T13:13:04.756Z,65.93
2019-03-18T13:14:07.899Z,64.52
2019-03-18T13:15:11.129Z,65.25
2019-03-18T13:16:18.084Z,63.74
2019-03-18T13:17:22.974Z,63.70
2019-03-18T13:18:25.690Z,63.70
2019-03-18T13:19:30.865Z,59.80
2019-03-18T13:20:33.623Z,59.80
2019-03-18T13:21:49.272Z,59.69
2019-03-18T13:22:54.398Z,58.83
2019-03-18T13:24:07.380Z,56.36
2019-03-18T13:25:13.626Z,58.77
2019-03-18T13:26:16.399Z,59.70
2019-03-18T13:27:19.100Z,61.00
2019-03-18T13:28:22.728Z,61.39
2019-03-18T13:29:25.745Z,63.35
2019-03-18T13:30:28.808Z,63.66
2019-03-18T13:31:31.969Z,64.11
2019-03-18T13:32:35.411Z,64.11
2019-03-18T13:33:40.460Z,65.24
2019-03-18T13:34:43.175Z,65.72
2019-03-18T13:35:45.976Z,65.51
2019-03-18T13:36:52.879Z,64.20
2019-03-18T13:37:55.651Z,64.21
2019-03-18T13:39:05.762Z,65.57
2019-03-18T13:40:08.819Z,65.57
2019-03-18T13:41:11.612Z,68.75
2019-03-18T13:42:14.649Z,67.47
2019-03-18T13:43:17.408Z,66.49
2019-03-18T13:44:20.242Z,68.02
2019-03-18T13:45:22.986Z,68.67
2019-03-18T13:46:26.316Z,68.21
2019-03-18T13:47:30.043Z,68.04
2019-03-18T13:48:33.161Z,68.87
2019-03-18T13:49:35.979Z,68.44
2019-03-18T13:50:38.721Z,68.00
2019-03-18T13:51:41.553Z,66.22
2019-03-18T13:52:44.660Z,65.41
2019-03-18T13:53:47.953Z,65.41
2019-03-18T13:54:52.664Z,65.12
2019-03-18T13:55:58.331Z,64.54
2019-03-18T13:57:06.846Z,63.48
2019-03-18T13:58:12.588Z,63.26
2019-03-18T13:59:15.390Z,63.39
2019-03-18T14:00:18.325Z,62.11